sensor_id;sensor_type;location;lat;lon;timestamp;pressure;altitude;pressure_sealevel;temperature;humidity
30730;BME280;17476;48.458;7.928;2023-04-15T00:01:27;99008.44;;;7.86;76.91
30730;BME280;17476;48.458;7.928;2023-04-15T00:03:54;99012.66;;;7.87;76.38
30730;BME280;17476;48.458;7.928;2023-04-15T00:06:21;99000.97;;;7.83;77.37
30730;BME280;17476;48.458;7.928;2023-04-15T00:08:48;99011.03;;;7.86;78.49
30730;BME280;17476;48.458;7.928;2023-04-15T00:11:16;99011.31;;;7.91;77.15
30730;BME280;17476;48.458;7.928;2023-04-15T00:13:43;98999.50;;;7.80;77.15
30730;BME280;17476;48.458;7.928;2023-04-15T00:16:09;98995.13;;;7.81;77.79
30730;BME280;17476;48.458;7.928;2023-04-15T00:18:36;98995.38;;;7.94;77.05
30730;BME280;17476;48.458;7.928;2023-04-15T00:21:04;98987.75;;;7.92;77.32
30730;BME280;17476;48.458;7.928;2023-04-15T00:23:30;98988.06;;;7.89;76.34
30730;BME280;17476;48.458;7.928;2023-04-15T00:25:56;98986.78;;;7.85;76.42
30730;BME280;17476;48.458;7.928;2023-04-15T00:28:22;98980.31;;;7.81;77.33
30730;BME280;17476;48.458;7.928;2023-04-15T00:30:48;98994.44;;;7.79;76.84
30730;BME280;17476;48.458;7.928;2023-04-15T00:33:14;98983.41;;;7.77;76.25
30730;BME280;17476;48.458;7.928;2023-04-15T00:35:41;98981.19;;;7.65;77.91
30730;BME280;17476;48.458;7.928;2023-04-15T00:38:07;98981.78;;;7.76;76.70
30730;BME280;17476;48.458;7.928;2023-04-15T00:40:33;98983.19;;;7.47;78.31
30730;BME280;17476;48.458;7.928;2023-04-15T00:43:00;98991.78;;;7.56;76.22
30730;BME280;17476;48.458;7.928;2023-04-15T00:45:26;98990.94;;;7.63;76.26
30730;BME280;17476;48.458;7.928;2023-04-15T00:47:53;98997.16;;;7.54;77.03
30730;BME280;17476;48.458;7.928;2023-04-15T00:50:18;99002.69;;;7.51;75.88
30730;BME280;17476;48.458;7.928;2023-04-15T00:52:44;99015.06;;;7.49;76.03
30730;BME280;17476;48.458;7.928;2023-04-15T00:55:10;99003.19;;;7.47;78.05
30730;BME280;17476;48.458;7.928;2023-04-15T00:57:38;99006.94;;;7.52;77.33
30730;BME280;17476;48.458;7.928;2023-04-15T01:00:06;98999.41;;;7.57;77.79
30730;BME280;17476;48.458;7.928;2023-04-15T01:02:36;99004.28;;;7.60;76.90
30730;BME280;17476;48.458;7.928;2023-04-15T01:05:03;98996.66;;;7.51;75.23
30730;BME280;17476;48.458;7.928;2023-04-15T01:07:30;98997.69;;;7.33;76.24
30730;BME280;17476;48.458;7.928;2023-04-15T01:09:56;98996.09;;;7.32;76.29
30730;BME280;17476;48.458;7.928;2023-04-15T01:12:24;98995.13;;;7.25;75.90
30730;BME280;17476;48.458;7.928;2023-04-15T01:14:52;99001.13;;;7.18;76.95
30730;BME280;17476;48.458;7.928;2023-04-15T01:17:18;99002.78;;;7.19;77.49
30730;BME280;17476;48.458;7.928;2023-04-15T01:19:44;99007.66;;;7.14;76.97
30730;BME280;17476;48.458;7.928;2023-04-15T01:22:11;99006.84;;;7.13;77.63
30730;BME280;17476;48.458;7.928;2023-04-15T01:24:37;99002.28;;;7.07;78.94
30730;BME280;17476;48.458;7.928;2023-04-15T01:27:04;99006.69;;;7.06;78.24
30730;BME280;17476;48.458;7.928;2023-04-15T01:29:34;99007.16;;;7.10;78.39
30730;BME280;17476;48.458;7.928;2023-04-15T01:31:59;99004.56;;;6.94;79.36
30730;BME280;17476;48.458;7.928;2023-04-15T01:34:25;99002.63;;;6.88;80.67
30730;BME280;17476;48.458;7.928;2023-04-15T01:36:51;98998.09;;;6.98;80.66
30730;BME280;17476;48.458;7.928;2023-04-15T01:39:17;98998.38;;;7.11;79.17
30730;BME280;17476;48.458;7.928;2023-04-15T01:41:43;99001.31;;;7.08;79.55
30730;BME280;17476;48.458;7.928;2023-04-15T01:44:09;98998.22;;;6.96;80.13
30730;BME280;17476;48.458;7.928;2023-04-15T01:46:35;98999.69;;;7.07;79.97
30730;BME280;17476;48.458;7.928;2023-04-15T01:49:01;98995.16;;;6.93;79.36
30730;BME280;17476;48.458;7.928;2023-04-15T01:51:27;98999.22;;;6.71;80.25
30730;BME280;17476;48.458;7.928;2023-04-15T01:53:53;98990.44;;;6.80;82.18
30730;BME280;17476;48.458;7.928;2023-04-15T01:56:21;98991.41;;;6.87;80.79
30730;BME280;17476;48.458;7.928;2023-04-15T01:58:49;98986.84;;;6.89;80.37
30730;BME280;17476;48.458;7.928;2023-04-15T02:01:14;98983.44;;;6.97;79.54
30730;BME280;17476;48.458;7.928;2023-04-15T02:03:44;98977.94;;;7.00;79.05
30730;BME280;17476;48.458;7.928;2023-04-15T02:06:11;98982.63;;;6.55;81.40
30730;BME280;17476;48.458;7.928;2023-04-15T02:08:37;98982.31;;;6.67;81.47
30730;BME280;17476;48.458;7.928;2023-04-15T02:11:03;98987.34;;;6.76;82.02
30730;BME280;17476;48.458;7.928;2023-04-15T02:13:28;98983.78;;;6.86;81.44
30730;BME280;17476;48.458;7.928;2023-04-15T02:15:54;98983.63;;;6.87;80.11
30730;BME280;17476;48.458;7.928;2023-04-15T02:18:20;98984.59;;;6.86;80.11
30730;BME280;17476;48.458;7.928;2023-04-15T02:20:46;98986.69;;;6.82;78.38
30730;BME280;17476;48.458;7.928;2023-04-15T02:23:13;98987.34;;;6.68;79.63
30730;BME280;17476;48.458;7.928;2023-04-15T02:25:39;98995.66;;;6.72;79.34
30730;BME280;17476;48.458;7.928;2023-04-15T02:28:05;98991.25;;;6.72;80.55
30730;BME280;17476;48.458;7.928;2023-04-15T02:30:32;98990.28;;;6.73;80.06
30730;BME280;17476;48.458;7.928;2023-04-15T02:32:59;98991.72;;;6.76;79.80
30730;BME280;17476;48.458;7.928;2023-04-15T02:35:25;98987.03;;;6.71;80.81
30730;BME280;17476;48.458;7.928;2023-04-15T02:37:51;98990.44;;;6.64;80.63
30730;BME280;17476;48.458;7.928;2023-04-15T02:40:17;98994.16;;;6.61;79.57
30730;BME280;17476;48.458;7.928;2023-04-15T02:42:43;98996.13;;;6.67;80.90
30730;BME280;17476;48.458;7.928;2023-04-15T02:45:10;99000.66;;;6.81;80.15
30730;BME280;17476;48.458;7.928;2023-04-15T02:47:37;99004.59;;;6.77;79.71
30730;BME280;17476;48.458;7.928;2023-04-15T02:50:11;99008.28;;;6.83;80.51
30730;BME280;17476;48.458;7.928;2023-04-15T02:52:41;98997.25;;;6.89;79.39
30730;BME280;17476;48.458;7.928;2023-04-15T02:55:08;98999.53;;;7.00;78.22
30730;BME280;17476;48.458;7.928;2023-04-15T02:57:34;98997.91;;;6.99;79.56
30730;BME280;17476;48.458;7.928;2023-04-15T03:00:03;99000.19;;;7.02;79.35
30730;BME280;17476;48.458;7.928;2023-04-15T03:02:36;98999.69;;;6.99;80.00
30730;BME280;17476;48.458;7.928;2023-04-15T03:05:03;99008.97;;;6.85;78.04
30730;BME280;17476;48.458;7.928;2023-04-15T03:07:30;99005.69;;;6.83;78.99
30730;BME280;17476;48.458;7.928;2023-04-15T03:09:56;99005.06;;;6.73;79.62
30730;BME280;17476;48.458;7.928;2023-04-15T03:12:22;99005.53;;;6.68;79.31
30730;BME280;17476;48.458;7.928;2023-04-15T03:14:48;99003.59;;;6.78;79.33
30730;BME280;17476;48.458;7.928;2023-04-15T03:17:14;99000.19;;;6.86;79.64
30730;BME280;17476;48.458;7.928;2023-04-15T03:19:40;99005.56;;;6.93;78.37
30730;BME280;17476;48.458;7.928;2023-04-15T03:22:06;98999.69;;;6.82;77.43
30730;BME280;17476;48.458;7.928;2023-04-15T03:24:31;98995.47;;;6.81;79.15
30730;BME280;17476;48.458;7.928;2023-04-15T03:26:57;99003.28;;;6.81;78.67
30730;BME280;17476;48.458;7.928;2023-04-15T03:29:23;99003.59;;;6.78;78.65
30730;BME280;17476;48.458;7.928;2023-04-15T03:31:50;99001.31;;;6.83;79.00
30730;BME280;17476;48.458;7.928;2023-04-15T03:34:16;98999.06;;;6.80;77.64
30730;BME280;17476;48.458;7.928;2023-04-15T03:36:42;99002.13;;;6.84;78.35
30730;BME280;17476;48.458;7.928;2023-04-15T03:39:08;98996.28;;;6.82;78.22
30730;BME280;17476;48.458;7.928;2023-04-15T03:41:34;98994.66;;;6.81;78.99
30730;BME280;17476;48.458;7.928;2023-04-15T03:44:00;99001.00;;;6.78;78.34
30730;BME280;17476;48.458;7.928;2023-04-15T03:46:25;98992.06;;;6.65;79.70
30730;BME280;17476;48.458;7.928;2023-04-15T03:48:52;98996.94;;;6.76;79.29
30730;BME280;17476;48.458;7.928;2023-04-15T03:51:18;98993.69;;;6.74;79.79
30730;BME280;17476;48.458;7.928;2023-04-15T03:53:43;98996.63;;;6.87;79.11
30730;BME280;17476;48.458;7.928;2023-04-15T03:56:09;98992.88;;;6.73;79.78
30730;BME280;17476;48.458;7.928;2023-04-15T03:58:35;98997.28;;;6.73;79.37
30730;BME280;17476;48.458;7.928;2023-04-15T04:01:01;99002.13;;;6.68;79.11
30730;BME280;17476;48.458;7.928;2023-04-15T04:03:27;99001.81;;;6.71;79.89
30730;BME280;17476;48.458;7.928;2023-04-15T04:05:53;98994.34;;;6.60;79.21
30730;BME280;17476;48.458;7.928;2023-04-15T04:08:18;98998.88;;;6.74;78.98
30730;BME280;17476;48.458;7.928;2023-04-15T04:10:46;98998.41;;;6.78;77.85
30730;BME280;17476;48.458;7.928;2023-04-15T04:13:12;99001.31;;;6.75;77.24
30730;BME280;17476;48.458;7.928;2023-04-15T04:15:37;99006.19;;;6.70;78.92
30730;BME280;17476;48.458;7.928;2023-04-15T04:18:03;99014.16;;;6.85;78.19
30730;BME280;17476;48.458;7.928;2023-04-15T04:20:29;99006.84;;;6.89;77.36
30730;BME280;17476;48.458;7.928;2023-04-15T04:22:57;99002.47;;;6.65;78.35
30730;BME280;17476;48.458;7.928;2023-04-15T04:25:23;99007.66;;;6.73;78.70
30730;BME280;17476;48.458;7.928;2023-04-15T04:27:49;99008.63;;;6.72;78.01
30730;BME280;17476;48.458;7.928;2023-04-15T04:30:15;99011.72;;;6.67;79.40
30730;BME280;17476;48.458;7.928;2023-04-15T04:32:40;99002.47;;;6.65;77.93
30730;BME280;17476;48.458;7.928;2023-04-15T04:35:07;99009.13;;;6.75;78.53
30730;BME280;17476;48.458;7.928;2023-04-15T04:37:33;99009.91;;;6.76;78.48
30730;BME280;17476;48.458;7.928;2023-04-15T04:39:59;99006.84;;;6.64;77.69
30730;BME280;17476;48.458;7.928;2023-04-15T04:42:24;99011.19;;;6.55;80.40
30730;BME280;17476;48.458;7.928;2023-04-15T04:44:50;99015.63;;;6.71;79.58
30730;BME280;17476;48.458;7.928;2023-04-15T04:47:16;99011.38;;;6.70;78.07
30730;BME280;17476;48.458;7.928;2023-04-15T04:49:42;99028.78;;;6.78;77.09
30730;BME280;17476;48.458;7.928;2023-04-15T04:52:07;99017.41;;;6.79;78.92
30730;BME280;17476;48.458;7.928;2023-04-15T04:54:33;99021.78;;;6.87;78.23
30730;BME280;17476;48.458;7.928;2023-04-15T04:56:59;99026.81;;;6.80;76.92
30730;BME280;17476;48.458;7.928;2023-04-15T04:59:26;99022.25;;;6.90;77.95
30730;BME280;17476;48.458;7.928;2023-04-15T05:01:52;99013.34;;;7.01;77.63
30730;BME280;17476;48.458;7.928;2023-04-15T05:04:18;99026.00;;;7.04;77.92
30730;BME280;17476;48.458;7.928;2023-04-15T05:06:44;99020.97;;;7.02;77.87
30730;BME280;17476;48.458;7.928;2023-04-15T05:09:10;99021.47;;;7.06;77.26
30730;BME280;17476;48.458;7.928;2023-04-15T05:11:36;99024.53;;;7.09;77.39
30730;BME280;17476;48.458;7.928;2023-04-15T05:14:01;99021.47;;;7.06;77.88
30730;BME280;17476;48.458;7.928;2023-04-15T05:16:27;99026.81;;;7.13;77.36
30730;BME280;17476;48.458;7.928;2023-04-15T05:18:53;99020.66;;;7.14;76.94
30730;BME280;17476;48.458;7.928;2023-04-15T05:21:19;99023.25;;;7.14;75.52
30730;BME280;17476;48.458;7.928;2023-04-15T05:23:46;99025.06;;;7.05;77.07
30730;BME280;17476;48.458;7.928;2023-04-15T05:26:11;99025.22;;;7.11;76.73
30730;BME280;17476;48.458;7.928;2023-04-15T05:28:37;99027.94;;;7.10;77.09
30730;BME280;17476;48.458;7.928;2023-04-15T05:31:03;99026.16;;;7.10;76.46
30730;BME280;17476;48.458;7.928;2023-04-15T05:33:29;99029.56;;;7.03;77.13
30730;BME280;17476;48.458;7.928;2023-04-15T05:35:55;99032.66;;;7.15;76.30
30730;BME280;17476;48.458;7.928;2023-04-15T05:38:20;99021.13;;;7.09;76.55
30730;BME280;17476;48.458;7.928;2023-04-15T05:40:46;99032.03;;;7.13;76.14
30730;BME280;17476;48.458;7.928;2023-04-15T05:43:12;99025.81;;;7.30;75.50
30730;BME280;17476;48.458;7.928;2023-04-15T05:45:38;99025.47;;;7.41;75.34
30730;BME280;17476;48.458;7.928;2023-04-15T05:48:03;99022.38;;;7.37;75.11
30730;BME280;17476;48.458;7.928;2023-04-15T05:50:29;99029.50;;;7.52;75.40
30730;BME280;17476;48.458;7.928;2023-04-15T05:52:55;99022.34;;;7.62;74.64
30730;BME280;17476;48.458;7.928;2023-04-15T05:55:21;99034.84;;;7.58;74.60
30730;BME280;17476;48.458;7.928;2023-04-15T05:57:47;99034.38;;;7.63;74.98
30730;BME280;17476;48.458;7.928;2023-04-15T06:00:13;99031.09;;;7.69;74.09
30730;BME280;17476;48.458;7.928;2023-04-15T06:02:39;99033.34;;;7.72;74.87
30730;BME280;17476;48.458;7.928;2023-04-15T06:05:06;99033.50;;;7.79;73.76
30730;BME280;17476;48.458;7.928;2023-04-15T06:07:35;99029.94;;;7.80;74.04
30730;BME280;17476;48.458;7.928;2023-04-15T06:10:02;99033.16;;;7.82;73.98
30730;BME280;17476;48.458;7.928;2023-04-15T06:12:29;99026.66;;;7.86;73.99
30730;BME280;17476;48.458;7.928;2023-04-15T06:14:55;99026.44;;;7.96;72.25
30730;BME280;17476;48.458;7.928;2023-04-15T06:17:21;99028.69;;;7.99;73.33
30730;BME280;17476;48.458;7.928;2023-04-15T06:19:47;99026.28;;;7.97;73.74
30730;BME280;17476;48.458;7.928;2023-04-15T06:22:15;99026.53;;;8.10;73.21
30730;BME280;17476;48.458;7.928;2023-04-15T06:24:41;99029.91;;;8.19;72.87
30730;BME280;17476;48.458;7.928;2023-04-15T06:27:07;99033.19;;;8.21;72.69
30730;BME280;17476;48.458;7.928;2023-04-15T06:29:33;99046.03;;;8.23;72.19
30730;BME280;17476;48.458;7.928;2023-04-15T06:31:58;99041.94;;;8.28;71.74
30730;BME280;17476;48.458;7.928;2023-04-15T06:34:30;99041.25;;;8.34;71.81
30730;BME280;17476;48.458;7.928;2023-04-15T06:36:58;99041.69;;;8.46;71.37
30730;BME280;17476;48.458;7.928;2023-04-15T06:39:26;99042.47;;;8.46;70.68
30730;BME280;17476;48.458;7.928;2023-04-15T06:41:52;99045.44;;;8.43;71.20
30730;BME280;17476;48.458;7.928;2023-04-15T06:44:18;99048.81;;;8.52;70.61
30730;BME280;17476;48.458;7.928;2023-04-15T06:46:44;99054.63;;;8.62;70.24
30730;BME280;17476;48.458;7.928;2023-04-15T06:49:10;99059.41;;;8.73;70.43
30730;BME280;17476;48.458;7.928;2023-04-15T06:51:36;99060.00;;;8.84;69.88
30730;BME280;17476;48.458;7.928;2023-04-15T06:54:03;99060.06;;;8.75;69.31
30730;BME280;17476;48.458;7.928;2023-04-15T06:56:32;99058.09;;;8.78;69.95
30730;BME280;17476;48.458;7.928;2023-04-15T06:58:58;99062.16;;;8.80;69.93
30730;BME280;17476;48.458;7.928;2023-04-15T07:01:23;99048.81;;;8.98;69.86
30730;BME280;17476;48.458;7.928;2023-04-15T07:03:49;99043.66;;;9.13;69.77
30730;BME280;17476;48.458;7.928;2023-04-15T07:06:15;99047.13;;;9.43;69.64
30730;BME280;17476;48.458;7.928;2023-04-15T07:08:41;99046.88;;;9.52;67.68
30730;BME280;17476;48.458;7.928;2023-04-15T07:11:07;99039.03;;;9.67;66.19
30730;BME280;17476;48.458;7.928;2023-04-15T07:13:33;99044.19;;;9.90;67.59
30730;BME280;17476;48.458;7.928;2023-04-15T07:15:59;99039.28;;;10.02;67.07
30730;BME280;17476;48.458;7.928;2023-04-15T07:18:25;99042.06;;;10.15;66.12
30730;BME280;17476;48.458;7.928;2023-04-15T07:20:51;99040.38;;;9.93;66.44
30730;BME280;17476;48.458;7.928;2023-04-15T07:23:17;99037.06;;;9.84;66.70
30730;BME280;17476;48.458;7.928;2023-04-15T07:25:43;99042.63;;;9.81;67.56
30730;BME280;17476;48.458;7.928;2023-04-15T07:28:08;99038.41;;;9.95;66.58
30730;BME280;17476;48.458;7.928;2023-04-15T07:30:34;99038.56;;;10.08;65.99
30730;BME280;17476;48.458;7.928;2023-04-15T07:33:00;99045.78;;;10.06;65.23
30730;BME280;17476;48.458;7.928;2023-04-15T07:35:26;99049.84;;;10.23;65.80
30730;BME280;17476;48.458;7.928;2023-04-15T07:37:53;99049.00;;;10.37;66.94
30730;BME280;17476;48.458;7.928;2023-04-15T07:40:20;99047.47;;;10.43;65.22
30730;BME280;17476;48.458;7.928;2023-04-15T07:42:46;99044.06;;;10.64;66.48
30730;BME280;17476;48.458;7.928;2023-04-15T07:45:14;99046.28;;;10.88;63.72
30730;BME280;17476;48.458;7.928;2023-04-15T07:47:41;99042.25;;;11.07;62.98
30730;BME280;17476;48.458;7.928;2023-04-15T07:50:09;99050.34;;;11.40;64.98
30730;BME280;17476;48.458;7.928;2023-04-15T07:52:36;99044.63;;;11.86;63.61
30730;BME280;17476;48.458;7.928;2023-04-15T07:55:07;99050.59;;;12.15;61.33
30730;BME280;17476;48.458;7.928;2023-04-15T07:57:36;99041.66;;;12.64;60.54
30730;BME280;17476;48.458;7.928;2023-04-15T08:00:03;99049.59;;;13.03;60.22
30730;BME280;17476;48.458;7.928;2023-04-15T08:02:30;99057.88;;;13.47;59.61
30730;BME280;17476;48.458;7.928;2023-04-15T08:04:56;99043.66;;;13.87;56.47
30730;BME280;17476;48.458;7.928;2023-04-15T08:07:22;99041.97;;;14.06;56.13
30730;BME280;17476;48.458;7.928;2023-04-15T08:09:48;99047.66;;;14.86;55.67
30730;BME280;17476;48.458;7.928;2023-04-15T08:12:14;99039.63;;;15.74;56.33
30730;BME280;17476;48.458;7.928;2023-04-15T08:14:40;99039.50;;;16.54;51.09
30730;BME280;17476;48.458;7.928;2023-04-15T08:17:06;99044.69;;;17.03;52.43
30730;BME280;17476;48.458;7.928;2023-04-15T08:19:32;99045.72;;;17.02;46.42
30730;BME280;17476;48.458;7.928;2023-04-15T08:21:58;99052.34;;;16.92;47.17
30730;BME280;17476;48.458;7.928;2023-04-15T08:24:25;99047.22;;;17.09;47.31
30730;BME280;17476;48.458;7.928;2023-04-15T08:26:52;99052.53;;;17.44;45.62
30730;BME280;17476;48.458;7.928;2023-04-15T08:29:18;99054.94;;;17.58;46.24
30730;BME280;17476;48.458;7.928;2023-04-15T08:31:43;99055.63;;;17.65;44.17
30730;BME280;17476;48.458;7.928;2023-04-15T08:34:13;99060.34;;;17.63;43.66
30730;BME280;17476;48.458;7.928;2023-04-15T08:36:39;99057.47;;;17.53;44.94
30730;BME280;17476;48.458;7.928;2023-04-15T08:39:06;99063.91;;;17.57;45.26
30730;BME280;17476;48.458;7.928;2023-04-15T08:44:17;99064.41;;;17.77;45.64
30730;BME280;17476;48.458;7.928;2023-04-15T08:46:44;99066.69;;;17.85;46.37
30730;BME280;17476;48.458;7.928;2023-04-15T08:49:12;99064.84;;;17.86;44.20
30730;BME280;17476;48.458;7.928;2023-04-15T08:51:39;99065.06;;;17.84;42.62
30730;BME280;17476;48.458;7.928;2023-04-15T08:54:07;99068.03;;;17.99;44.49
30730;BME280;17476;48.458;7.928;2023-04-15T08:56:34;99065.25;;;18.18;43.81
30730;BME280;17476;48.458;7.928;2023-04-15T08:59:02;99066.09;;;18.35;43.79
30730;BME280;17476;48.458;7.928;2023-04-15T09:01:28;99075.72;;;18.81;44.82
30730;BME280;17476;48.458;7.928;2023-04-15T09:03:55;99066.75;;;19.16;45.75
30730;BME280;17476;48.458;7.928;2023-04-15T09:06:22;99070.53;;;19.37;42.83
30730;BME280;17476;48.458;7.928;2023-04-15T09:08:50;99064.53;;;19.58;41.18
30730;BME280;17476;48.458;7.928;2023-04-15T09:11:17;99067.69;;;19.77;41.56
30730;BME280;17476;48.458;7.928;2023-04-15T09:13:43;99073.25;;;19.98;42.00
30730;BME280;17476;48.458;7.928;2023-04-15T09:16:09;99072.66;;;20.34;41.47
30730;BME280;17476;48.458;7.928;2023-04-15T09:18:37;99073.47;;;20.84;41.68
30730;BME280;17476;48.458;7.928;2023-04-15T09:21:11;99079.28;;;21.08;40.62
30730;BME280;17476;48.458;7.928;2023-04-15T09:23:52;99075.56;;;21.41;40.08
30730;BME280;17476;48.458;7.928;2023-04-15T09:26:18;99079.25;;;21.77;37.81
30730;BME280;17476;48.458;7.928;2023-04-15T09:28:44;99081.75;;;21.99;38.73
30730;BME280;17476;48.458;7.928;2023-04-15T09:31:10;99082.09;;;22.13;39.48
30730;BME280;17476;48.458;7.928;2023-04-15T09:33:54;99088.78;;;22.10;38.39
30730;BME280;17476;48.458;7.928;2023-04-15T09:38:55;99082.25;;;21.91;36.51
30730;BME280;17476;48.458;7.928;2023-04-15T09:41:22;99084.03;;;21.80;36.78
30730;BME280;17476;48.458;7.928;2023-04-15T09:43:48;99089.34;;;21.75;38.93
30730;BME280;17476;48.458;7.928;2023-04-15T09:46:15;99093.09;;;21.79;38.07
30730;BME280;17476;48.458;7.928;2023-04-15T09:48:41;99091.06;;;21.96;37.43
30730;BME280;17476;48.458;7.928;2023-04-15T09:51:06;99083.19;;;22.17;36.97
30730;BME280;17476;48.458;7.928;2023-04-15T09:53:35;99084.16;;;22.73;38.95
30730;BME280;17476;48.458;7.928;2023-04-15T09:56:01;99085.84;;;23.25;37.81
30730;BME280;17476;48.458;7.928;2023-04-15T09:58:32;99084.66;;;23.97;37.35
30730;BME280;17476;48.458;7.928;2023-04-15T10:01:02;99086.66;;;24.41;35.24
30730;BME280;17476;48.458;7.928;2023-04-15T10:03:32;99090.97;;;24.82;35.34
30730;BME280;17476;48.458;7.928;2023-04-15T10:06:00;99080.84;;;25.13;33.33
30730;BME280;17476;48.458;7.928;2023-04-15T10:08:32;99089.56;;;25.57;35.01
30730;BME280;17476;48.458;7.928;2023-04-15T10:11:02;99087.00;;;25.71;32.50
30730;BME280;17476;48.458;7.928;2023-04-15T10:13:31;99080.06;;;25.70;33.06
30730;BME280;17476;48.458;7.928;2023-04-15T10:16:11;99085.63;;;25.79;32.38
30730;BME280;17476;48.458;7.928;2023-04-15T10:18:43;99088.25;;;25.84;32.24
30730;BME280;17476;48.458;7.928;2023-04-15T10:21:09;99094.50;;;25.98;32.53
30730;BME280;17476;48.458;7.928;2023-04-15T10:23:35;99082.78;;;26.37;34.65
30730;BME280;17476;48.458;7.928;2023-04-15T10:26:04;99092.16;;;26.39;32.37
30730;BME280;17476;48.458;7.928;2023-04-15T10:28:31;99090.72;;;26.47;31.99
30730;BME280;17476;48.458;7.928;2023-04-15T10:31:00;99094.84;;;26.58;32.14
30730;BME280;17476;48.458;7.928;2023-04-15T10:33:33;99092.63;;;26.65;30.59
30730;BME280;17476;48.458;7.928;2023-04-15T10:36:07;99095.59;;;26.64;30.04
30730;BME280;17476;48.458;7.928;2023-04-15T10:38:44;99096.59;;;26.68;29.73
30730;BME280;17476;48.458;7.928;2023-04-15T10:41:19;99099.13;;;26.97;30.13
30730;BME280;17476;48.458;7.928;2023-04-15T10:46:44;99094.50;;;27.35;28.59
30730;BME280;17476;48.458;7.928;2023-04-15T10:49:16;99094.13;;;27.56;28.60
30730;BME280;17476;48.458;7.928;2023-04-15T10:51:57;99101.44;;;27.69;29.69
30730;BME280;17476;48.458;7.928;2023-04-15T10:59:30;99101.69;;;28.14;28.58
30730;BME280;17476;48.458;7.928;2023-04-15T11:02:06;99104.56;;;27.90;25.81
30730;BME280;17476;48.458;7.928;2023-04-15T11:04:57;99106.25;;;27.86;27.31
30730;BME280;17476;48.458;7.928;2023-04-15T11:12:46;99107.25;;;28.81;24.65
30730;BME280;17476;48.458;7.928;2023-04-15T11:15:37;99107.72;;;28.97;27.14
30730;BME280;17476;48.458;7.928;2023-04-15T11:20:37;99114.47;;;29.39;28.13
30730;BME280;17476;48.458;7.928;2023-04-15T11:23:04;99118.72;;;29.31;26.72
30730;BME280;17476;48.458;7.928;2023-04-15T11:25:32;99109.38;;;29.51;27.94
30730;BME280;17476;48.458;7.928;2023-04-15T11:28:00;99119.56;;;29.63;27.38
30730;BME280;17476;48.458;7.928;2023-04-15T11:30:29;99118.31;;;29.60;25.46
30730;BME280;17476;48.458;7.928;2023-04-15T11:33:03;99123.75;;;29.24;27.31
30730;BME280;17476;48.458;7.928;2023-04-15T11:35:29;99119.28;;;28.97;26.48
30730;BME280;17476;48.458;7.928;2023-04-15T11:37:56;99111.22;;;28.83;24.86
30730;BME280;17476;48.458;7.928;2023-04-15T11:40:25;99128.25;;;28.43;27.47
30730;BME280;17476;48.458;7.928;2023-04-15T11:43:15;99120.41;;;28.33;25.80
30730;BME280;17476;48.458;7.928;2023-04-15T11:45:55;99124.28;;;28.40;25.47
30730;BME280;17476;48.458;7.928;2023-04-15T11:48:27;99130.56;;;28.08;25.63
30730;BME280;17476;48.458;7.928;2023-04-15T11:51:02;99134.78;;;27.68;26.85
30730;BME280;17476;48.458;7.928;2023-04-15T11:53:43;99129.53;;;27.90;26.06
30730;BME280;17476;48.458;7.928;2023-04-15T11:56:15;99134.03;;;28.09;27.24
30730;BME280;17476;48.458;7.928;2023-04-15T11:58:41;99126.66;;;28.14;25.86
30730;BME280;17476;48.458;7.928;2023-04-15T12:01:08;99133.63;;;28.29;27.02
30730;BME280;17476;48.458;7.928;2023-04-15T12:03:45;99145.41;;;28.19;24.32
30730;BME280;17476;48.458;7.928;2023-04-15T12:06:22;99150.88;;;28.00;24.40
30730;BME280;17476;48.458;7.928;2023-04-15T12:14:32;99152.50;;;27.69;21.66
30730;BME280;17476;48.458;7.928;2023-04-15T12:17:03;99153.25;;;27.56;24.23
30730;BME280;17476;48.458;7.928;2023-04-15T12:19:39;99164.28;;;27.73;23.52
30730;BME280;17476;48.458;7.928;2023-04-15T12:22:15;99162.41;;;28.01;24.61
30730;BME280;17476;48.458;7.928;2023-04-15T12:24:43;99166.50;;;28.26;23.76
30730;BME280;17476;48.458;7.928;2023-04-15T12:27:15;99175.38;;;27.99;23.12
30730;BME280;17476;48.458;7.928;2023-04-15T12:29:42;99173.78;;;27.98;23.40
30730;BME280;17476;48.458;7.928;2023-04-15T12:34:46;99185.97;;;27.77;24.15
30730;BME280;17476;48.458;7.928;2023-04-15T12:37:14;99183.50;;;27.80;24.00
30730;BME280;17476;48.458;7.928;2023-04-15T12:39:42;99188.53;;;27.68;22.42
30730;BME280;17476;48.458;7.928;2023-04-15T12:42:09;99190.19;;;27.64;23.18
30730;BME280;17476;48.458;7.928;2023-04-15T12:44:36;99200.31;;;27.53;24.71
30730;BME280;17476;48.458;7.928;2023-04-15T12:47:03;99202.94;;;27.39;24.22
30730;BME280;17476;48.458;7.928;2023-04-15T12:49:31;99206.38;;;27.26;23.80
30730;BME280;17476;48.458;7.928;2023-04-15T12:51:59;99207.81;;;27.18;23.59
30730;BME280;17476;48.458;7.928;2023-04-15T12:54:26;99213.75;;;26.97;24.32
30730;BME280;17476;48.458;7.928;2023-04-15T12:56:53;99210.88;;;26.88;24.30
30730;BME280;17476;48.458;7.928;2023-04-15T12:59:19;99205.56;;;27.07;24.10
30730;BME280;17476;48.458;7.928;2023-04-15T13:01:47;99216.41;;;27.53;23.18
30730;BME280;17476;48.458;7.928;2023-04-15T13:04:13;99227.19;;;27.86;24.43
30730;BME280;17476;48.458;7.928;2023-04-15T13:06:39;99217.69;;;28.07;21.99
30730;BME280;17476;48.458;7.928;2023-04-15T13:09:06;99228.06;;;28.27;20.62
30730;BME280;17476;48.458;7.928;2023-04-15T13:11:32;99224.72;;;28.49;23.97
30730;BME280;17476;48.458;7.928;2023-04-15T13:14:06;99224.31;;;28.56;22.99
30730;BME280;17476;48.458;7.928;2023-04-15T13:16:33;99226.00;;;28.38;20.94
30730;BME280;17476;48.458;7.928;2023-04-15T13:19:00;99235.97;;;27.91;22.77
30730;BME280;17476;48.458;7.928;2023-04-15T13:21:27;99237.00;;;27.77;21.29
30730;BME280;17476;48.458;7.928;2023-04-15T13:23:53;99245.59;;;27.79;22.64
30730;BME280;17476;48.458;7.928;2023-04-15T13:26:19;99250.34;;;28.00;22.75
30730;BME280;17476;48.458;7.928;2023-04-15T13:28:45;99249.22;;;28.01;23.56
30730;BME280;17476;48.458;7.928;2023-04-15T13:31:11;99245.38;;;28.08;21.96
30730;BME280;17476;48.458;7.928;2023-04-15T13:33:37;99250.97;;;28.11;22.44
30730;BME280;17476;48.458;7.928;2023-04-15T13:36:03;99251.38;;;28.18;24.66
30730;BME280;17476;48.458;7.928;2023-04-15T13:38:29;99259.03;;;27.79;22.78